sensor_id;sensor_type;location;lat;lon;timestamp;pressure;altitude;pressure_sealevel;temperature;humidity
76730;BME280;65653;53.106;18.046;2023-04-03T00:00:14;102001.88;;;-0.81;76.68
76730;BME280;65653;53.106;18.046;2023-04-03T00:03:01;102007.17;;;-0.84;76.85
76730;BME280;65653;53.106;18.046;2023-04-03T00:05:27;102003.91;;;-0.84;76.69
76730;BME280;65653;53.106;18.046;2023-04-03T00:07:53;102003.66;;;-0.83;76.98
76730;BME280;65653;53.106;18.046;2023-04-03T00:10:20;101999.45;;;-0.83;76.54
76730;BME280;65653;53.106;18.046;2023-04-03T00:12:47;102000.95;;;-0.86;76.56
76730;BME280;65653;53.106;18.046;2023-04-03T00:15:13;102002.17;;;-0.88;76.48
76730;BME280;65653;53.106;18.046;2023-04-03T00:17:40;102004.92;;;-0.89;76.50
76730;BME280;65653;53.106;18.046;2023-04-03T00:20:07;102002.48;;;-0.90;76.17
76730;BME280;65653;53.106;18.046;2023-04-03T00:22:33;102004.02;;;-0.88;76.61
76730;BME280;65653;53.106;18.046;2023-04-03T00:25:00;101998.98;;;-0.86;76.69
76730;BME280;65653;53.106;18.046;2023-04-03T00:27:26;102000.52;;;-0.82;76.82
76730;BME280;65653;53.106;18.046;2023-04-03T00:29:53;101999.04;;;-0.80;76.72
76730;BME280;65653;53.106;18.046;2023-04-03T00:32:19;101995.93;;;-0.82;76.56
76730;BME280;65653;53.106;18.046;2023-04-03T00:34:46;101998.77;;;-0.86;76.74
76730;BME280;65653;53.106;18.046;2023-04-03T00:37:12;102002.23;;;-0.89;76.69
76730;BME280;65653;53.106;18.046;2023-04-03T00:39:39;102003.97;;;-0.91;76.87
76730;BME280;65653;53.106;18.046;2023-04-03T00:42:05;102004.64;;;-0.93;76.77
76730;BME280;65653;53.106;18.046;2023-04-03T00:46:59;101999.90;;;-0.97;77.10
76730;BME280;65653;53.106;18.046;2023-04-03T00:49:27;102002.58;;;-1.02;77.21
76730;BME280;65653;53.106;18.046;2023-04-03T00:51:55;102001.73;;;-1.09;77.23
76730;BME280;65653;53.106;18.046;2023-04-03T00:54:23;102000.52;;;-1.15;77.44
76730;BME280;65653;53.106;18.046;2023-04-03T00:56:51;102000.42;;;-1.19;77.72
76730;BME280;65653;53.106;18.046;2023-04-03T00:59:23;102002.85;;;-1.23;77.96
76730;BME280;65653;53.106;18.046;2023-04-03T01:01:54;102001.81;;;-1.24;78.24
76730;BME280;65653;53.106;18.046;2023-04-03T01:04:29;102002.17;;;-1.26;78.21
76730;BME280;65653;53.106;18.046;2023-04-03T01:09:42;102002.92;;;-1.38;78.16
76730;BME280;65653;53.106;18.046;2023-04-03T01:14:44;101997.33;;;-1.47;78.85
76730;BME280;65653;53.106;18.046;2023-04-03T01:17:37;102000.00;;;-1.46;79.06
76730;BME280;65653;53.106;18.046;2023-04-03T01:23:25;101999.59;;;-1.52;79.15
76730;BME280;65653;53.106;18.046;2023-04-03T01:25:55;102008.18;;;-1.58;79.37
76730;BME280;65653;53.106;18.046;2023-04-03T01:28:31;102012.23;;;-1.62;79.50
76730;BME280;65653;53.106;18.046;2023-04-03T01:33:31;102012.07;;;-1.62;79.99
76730;BME280;65653;53.106;18.046;2023-04-03T01:35:57;102013.19;;;-1.63;79.70
76730;BME280;65653;53.106;18.046;2023-04-03T01:38:24;102018.48;;;-1.64;79.81
76730;BME280;65653;53.106;18.046;2023-04-03T01:40:50;102016.08;;;-1.63;80.13
76730;BME280;65653;53.106;18.046;2023-04-03T01:43:17;102018.89;;;-1.64;79.97
76730;BME280;65653;53.106;18.046;2023-04-03T01:45:44;102019.40;;;-1.70;80.02
76730;BME280;65653;53.106;18.046;2023-04-03T01:48:10;102018.23;;;-1.71;80.39
76730;BME280;65653;53.106;18.046;2023-04-03T01:50:37;102022.05;;;-1.74;80.58
76730;BME280;65653;53.106;18.046;2023-04-03T01:53:03;102022.00;;;-1.73;80.71
76730;BME280;65653;53.106;18.046;2023-04-03T01:55:30;102014.48;;;-1.72;80.79
76730;BME280;65653;53.106;18.046;2023-04-03T01:57:56;102019.19;;;-1.69;80.96
76730;BME280;65653;53.106;18.046;2023-04-03T02:00:23;102020.02;;;-1.68;80.95
76730;BME280;65653;53.106;18.046;2023-04-03T02:02:49;102021.92;;;-1.67;80.84
76730;BME280;65653;53.106;18.046;2023-04-03T02:05:16;102022.64;;;-1.69;80.84
76730;BME280;65653;53.106;18.046;2023-04-03T02:07:42;102021.27;;;-1.71;81.15
76730;BME280;65653;53.106;18.046;2023-04-03T02:10:09;102024.02;;;-1.68;81.08
76730;BME280;65653;53.106;18.046;2023-04-03T02:12:36;102022.75;;;-1.68;81.00
76730;BME280;65653;53.106;18.046;2023-04-03T02:15:03;102025.17;;;-1.66;81.24
76730;BME280;65653;53.106;18.046;2023-04-03T02:17:30;102027.77;;;-1.65;81.14
76730;BME280;65653;53.106;18.046;2023-04-03T02:19:56;102028.09;;;-1.64;81.13
76730;BME280;65653;53.106;18.046;2023-04-03T02:22:23;102028.27;;;-1.69;80.97
76730;BME280;65653;53.106;18.046;2023-04-03T02:24:49;102029.79;;;-1.73;81.00
76730;BME280;65653;53.106;18.046;2023-04-03T02:27:16;102032.16;;;-1.77;81.19
76730;BME280;65653;53.106;18.046;2023-04-03T02:29:43;102028.65;;;-1.75;81.50
76730;BME280;65653;53.106;18.046;2023-04-03T02:32:09;102029.92;;;-1.78;81.33
76730;BME280;65653;53.106;18.046;2023-04-03T02:34:36;102033.48;;;-1.80;81.29
76730;BME280;65653;53.106;18.046;2023-04-03T02:37:03;102032.02;;;-1.80;81.73
76730;BME280;65653;53.106;18.046;2023-04-03T02:39:29;102037.11;;;-1.80;81.72
76730;BME280;65653;53.106;18.046;2023-04-03T02:41:56;102039.36;;;-1.82;81.72
76730;BME280;65653;53.106;18.046;2023-04-03T02:44:22;102042.09;;;-1.85;81.81
76730;BME280;65653;53.106;18.046;2023-04-03T02:46:49;102044.13;;;-1.85;82.01
76730;BME280;65653;53.106;18.046;2023-04-03T02:49:16;102043.23;;;-1.86;82.30
76730;BME280;65653;53.106;18.046;2023-04-03T02:51:43;102050.81;;;-1.88;81.73
76730;BME280;65653;53.106;18.046;2023-04-03T02:54:09;102052.73;;;-1.93;82.01
76730;BME280;65653;53.106;18.046;2023-04-03T02:56:36;102052.64;;;-1.92;82.44
76730;BME280;65653;53.106;18.046;2023-04-03T02:59:03;102052.94;;;-1.91;82.56
76730;BME280;65653;53.106;18.046;2023-04-03T03:01:29;102054.45;;;-1.89;82.68
76730;BME280;65653;53.106;18.046;2023-04-03T03:04:02;102055.23;;;-1.86;82.79
76730;BME280;65653;53.106;18.046;2023-04-03T03:06:29;102058.03;;;-1.85;82.31
76730;BME280;65653;53.106;18.046;2023-04-03T03:08:55;102057.54;;;-1.89;82.30
76730;BME280;65653;53.106;18.046;2023-04-03T03:11:22;102062.17;;;-1.88;82.77
76730;BME280;65653;53.106;18.046;2023-04-03T03:13:48;102061.08;;;-1.91;82.31
76730;BME280;65653;53.106;18.046;2023-04-03T03:16:15;102060.68;;;-1.93;82.66
76730;BME280;65653;53.106;18.046;2023-04-03T03:18:42;102063.34;;;-1.92;82.88
76730;BME280;65653;53.106;18.046;2023-04-03T03:21:09;102066.45;;;-1.95;82.28
76730;BME280;65653;53.106;18.046;2023-04-03T03:23:37;102068.23;;;-1.98;82.62
76730;BME280;65653;53.106;18.046;2023-04-03T03:26:06;102063.55;;;-1.95;83.10
76730;BME280;65653;53.106;18.046;2023-04-03T03:28:34;102066.27;;;-1.93;82.86
76730;BME280;65653;53.106;18.046;2023-04-03T03:31:02;102062.69;;;-1.93;82.63
76730;BME280;65653;53.106;18.046;2023-04-03T03:33:29;102062.86;;;-1.93;82.67
76730;BME280;65653;53.106;18.046;2023-04-03T03:35:56;102064.23;;;-1.92;82.76
76730;BME280;65653;53.106;18.046;2023-04-03T03:38:23;102065.57;;;-1.96;82.26
76730;BME280;65653;53.106;18.046;2023-04-03T03:40:51;102070.11;;;-1.99;82.37
76730;BME280;65653;53.106;18.046;2023-04-03T03:43:17;102073.98;;;-1.97;82.52
76730;BME280;65653;53.106;18.046;2023-04-03T03:45:44;102072.16;;;-1.97;82.56
76730;BME280;65653;53.106;18.046;2023-04-03T03:48:11;102075.33;;;-1.98;82.22
76730;BME280;65653;53.106;18.046;2023-04-03T03:50:38;102077.52;;;-2.02;82.03
76730;BME280;65653;53.106;18.046;2023-04-03T03:53:05;102079.59;;;-2.03;82.22
76730;BME280;65653;53.106;18.046;2023-04-03T03:55:31;102080.67;;;-2.06;82.33
76730;BME280;65653;53.106;18.046;2023-04-03T03:57:57;102081.76;;;-2.06;82.49
76730;BME280;65653;53.106;18.046;2023-04-03T04:00:24;102082.86;;;-2.06;82.31
76730;BME280;65653;53.106;18.046;2023-04-03T04:02:51;102084.79;;;-2.08;82.13
76730;BME280;65653;53.106;18.046;2023-04-03T04:05:17;102092.52;;;-2.10;82.27
76730;BME280;65653;53.106;18.046;2023-04-03T04:07:44;102093.98;;;-2.11;82.39
76730;BME280;65653;53.106;18.046;2023-04-03T04:10:10;102095.49;;;-2.09;82.54
76730;BME280;65653;53.106;18.046;2023-04-03T04:12:37;102100.94;;;-2.06;82.71
76730;BME280;65653;53.106;18.046;2023-04-03T04:15:04;102102.45;;;-2.04;82.32
76730;BME280;65653;53.106;18.046;2023-04-03T04:17:30;102098.30;;;-2.04;82.23
76730;BME280;65653;53.106;18.046;2023-04-03T04:19:57;102102.34;;;-2.05;82.16
76730;BME280;65653;53.106;18.046;2023-04-03T04:22:24;102106.58;;;-2.04;82.31
76730;BME280;65653;53.106;18.046;2023-04-03T04:24:50;102108.70;;;-2.03;82.20
76730;BME280;65653;53.106;18.046;2023-04-03T04:27:17;102111.90;;;-2.02;82.42
76730;BME280;65653;53.106;18.046;2023-04-03T04:29:44;102106.08;;;-2.01;82.49
76730;BME280;65653;53.106;18.046;2023-04-03T04:32:12;102107.20;;;-1.99;82.36
76730;BME280;65653;53.106;18.046;2023-04-03T04:34:38;102106.69;;;-1.96;82.13
76730;BME280;65653;53.106;18.046;2023-04-03T04:37:04;102103.70;;;-1.92;82.21
76730;BME280;65653;53.106;18.046;2023-04-03T04:39:31;102108.02;;;-1.88;81.80
76730;BME280;65653;53.106;18.046;2023-04-03T04:41:58;102109.25;;;-1.88;81.81
76730;BME280;65653;53.106;18.046;2023-04-03T04:44:25;102109.95;;;-1.84;81.81
76730;BME280;65653;53.106;18.046;2023-04-03T04:46:51;102112.59;;;-1.80;81.61
76730;BME280;65653;53.106;18.046;2023-04-03T04:49:19;102112.33;;;-1.76;81.47
76730;BME280;65653;53.106;18.046;2023-04-03T04:51:45;102115.66;;;-1.69;81.30
76730;BME280;65653;53.106;18.046;2023-04-03T04:54:12;102117.68;;;-1.60;80.98
76730;BME280;65653;53.106;18.046;2023-04-03T04:56:39;102121.54;;;-1.49;80.54
76730;BME280;65653;53.106;18.046;2023-04-03T04:59:05;102123.87;;;-1.34;80.06
76730;BME280;65653;53.106;18.046;2023-04-03T05:01:32;102128.80;;;-1.20;79.67
76730;BME280;65653;53.106;18.046;2023-04-03T05:03:58;102127.15;;;-1.09;79.18
76730;BME280;65653;53.106;18.046;2023-04-03T05:06:25;102126.89;;;-0.99;78.67
76730;BME280;65653;53.106;18.046;2023-04-03T05:08:53;102129.37;;;-0.96;78.41
76730;BME280;65653;53.106;18.046;2023-04-03T05:11:20;102133.20;;;-0.96;78.22
76730;BME280;65653;53.106;18.046;2023-04-03T05:13:46;102135.39;;;-0.96;78.17
76730;BME280;65653;53.106;18.046;2023-04-03T05:16:13;102137.14;;;-0.95;78.03
76730;BME280;65653;53.106;18.046;2023-04-03T05:18:39;102140.55;;;-0.97;77.83
76730;BME280;65653;53.106;18.046;2023-04-03T05:21:06;102135.84;;;-1.00;77.81
76730;BME280;65653;53.106;18.046;2023-04-03T05:23:32;102134.59;;;-0.98;77.65
76730;BME280;65653;53.106;18.046;2023-04-03T05:25:59;102141.90;;;-0.93;77.46
76730;BME280;65653;53.106;18.046;2023-04-03T05:28:25;102136.79;;;-0.90;77.24
76730;BME280;65653;53.106;18.046;2023-04-03T05:30:56;102138.36;;;-0.89;77.11
76730;BME280;65653;53.106;18.046;2023-04-03T05:33:25;102138.42;;;-0.84;77.05
76730;BME280;65653;53.106;18.046;2023-04-03T05:35:53;102136.27;;;-0.76;76.71
76730;BME280;65653;53.106;18.046;2023-04-03T05:38:20;102137.83;;;-0.75;76.40
76730;BME280;65653;53.106;18.046;2023-04-03T05:40:47;102138.61;;;-0.76;76.52
76730;BME280;65653;53.106;18.046;2023-04-03T05:43:13;102135.66;;;-0.72;76.40
76730;BME280;65653;53.106;18.046;2023-04-03T05:45:40;102135.74;;;-0.62;76.25
76730;BME280;65653;53.106;18.046;2023-04-03T05:48:06;102142.55;;;-0.52;75.77
76730;BME280;65653;53.106;18.046;2023-04-03T05:50:33;102144.66;;;-0.43;75.73
76730;BME280;65653;53.106;18.046;2023-04-03T05:53:00;102145.61;;;-0.30;75.32
76730;BME280;65653;53.106;18.046;2023-04-03T05:55:29;102143.02;;;-0.16;74.93
76730;BME280;65653;53.106;18.046;2023-04-03T05:57:57;102142.17;;;-0.01;74.45
76730;BME280;65653;53.106;18.046;2023-04-03T06:00:23;102142.50;;;0.10;73.98
76730;BME280;65653;53.106;18.046;2023-04-03T06:02:50;102145.01;;;0.22;73.45
76730;BME280;65653;53.106;18.046;2023-04-03T06:05:17;102146.73;;;0.28;73.05
76730;BME280;65653;53.106;18.046;2023-04-03T06:07:44;102146.11;;;0.50;73.20
76730;BME280;65653;53.106;18.046;2023-04-03T06:10:12;102142.09;;;0.86;71.80
76730;BME280;65653;53.106;18.046;2023-04-03T06:12:38;102139.71;;;1.26;69.67
76730;BME280;65653;53.106;18.046;2023-04-03T06:15:05;102139.76;;;1.63;67.83
76730;BME280;65653;53.106;18.046;2023-04-03T06:17:34;102146.17;;;1.89;67.16
76730;BME280;65653;53.106;18.046;2023-04-03T06:20:01;102145.17;;;1.76;66.86
76730;BME280;65653;53.106;18.046;2023-04-03T06:22:27;102148.48;;;1.75;66.60
76730;BME280;65653;53.106;18.046;2023-04-03T06:24:57;102149.23;;;2.01;66.05
76730;BME280;65653;53.106;18.046;2023-04-03T06:27:23;102148.93;;;2.15;65.06
76730;BME280;65653;53.106;18.046;2023-04-03T06:29:50;102155.77;;;2.11;64.84
76730;BME280;65653;53.106;18.046;2023-04-03T06:32:16;102158.89;;;2.03;64.81
76730;BME280;65653;53.106;18.046;2023-04-03T06:34:43;102156.56;;;1.98;65.13
76730;BME280;65653;53.106;18.046;2023-04-03T06:37:21;102164.48;;;1.95;64.89
76730;BME280;65653;53.106;18.046;2023-04-03T06:39:48;102168.09;;;1.92;64.70
76730;BME280;65653;53.106;18.046;2023-04-03T06:42:14;102165.88;;;2.07;64.13
76730;BME280;65653;53.106;18.046;2023-04-03T06:44:41;102166.33;;;2.23;63.92
76730;BME280;65653;53.106;18.046;2023-04-03T06:47:11;102166.27;;;2.26;63.00
76730;BME280;65653;53.106;18.046;2023-04-03T06:49:39;102169.70;;;2.31;63.55
76730;BME280;65653;53.106;18.046;2023-04-03T06:52:05;102171.47;;;2.46;64.07
76730;BME280;65653;53.106;18.046;2023-04-03T06:54:32;102174.39;;;2.48;62.42
76730;BME280;65653;53.106;18.046;2023-04-03T06:56:58;102171.77;;;2.31;61.46
76730;BME280;65653;53.106;18.046;2023-04-03T06:59:25;102175.20;;;2.29;61.87
76730;BME280;65653;53.106;18.046;2023-04-03T07:01:52;102181.23;;;2.26;61.92
76730;BME280;65653;53.106;18.046;2023-04-03T07:04:18;102184.43;;;2.32;62.05
76730;BME280;65653;53.106;18.046;2023-04-03T07:06:47;102189.73;;;2.44;61.99
76730;BME280;65653;53.106;18.046;2023-04-03T07:09:14;102195.23;;;2.57;62.62
76730;BME280;65653;53.106;18.046;2023-04-03T07:11:41;102198.96;;;2.74;61.15
76730;BME280;65653;53.106;18.046;2023-04-03T07:14:07;102196.75;;;2.73;61.34
76730;BME280;65653;53.106;18.046;2023-04-03T07:16:34;102202.04;;;2.89;61.73
76730;BME280;65653;53.106;18.046;2023-04-03T07:19:02;102203.90;;;3.02;60.98
76730;BME280;65653;53.106;18.046;2023-04-03T07:21:29;102202.48;;;3.13;59.38
76730;BME280;65653;53.106;18.046;2023-04-03T07:23:56;102209.59;;;3.18;59.45
76730;BME280;65653;53.106;18.046;2023-04-03T07:26:25;102211.24;;;3.18;58.51
76730;BME280;65653;53.106;18.046;2023-04-03T07:28:52;102206.75;;;3.19;58.68
76730;BME280;65653;53.106;18.046;2023-04-03T07:31:18;102211.88;;;3.33;58.75
76730;BME280;65653;53.106;18.046;2023-04-03T07:33:45;102210.34;;;3.31;57.70
76730;BME280;65653;53.106;18.046;2023-04-03T07:36:16;102209.82;;;3.51;59.35
76730;BME280;65653;53.106;18.046;2023-04-03T07:38:43;102208.27;;;3.72;59.06
76730;BME280;65653;53.106;18.046;2023-04-03T07:41:15;102207.30;;;4.06;58.38
76730;BME280;65653;53.106;18.046;2023-04-03T07:43:44;102212.23;;;4.40;57.27
76730;BME280;65653;53.106;18.046;2023-04-03T07:46:11;102206.35;;;4.43;55.94
76730;BME280;65653;53.106;18.046;2023-04-03T07:48:39;102209.66;;;4.14;52.78
76730;BME280;65653;53.106;18.046;2023-04-03T07:51:06;102210.83;;;4.05;53.04
76730;BME280;65653;53.106;18.046;2023-04-03T07:53:32;102213.96;;;4.09;51.21
76730;BME280;65653;53.106;18.046;2023-04-03T07:55:59;102213.02;;;4.26;51.24
76730;BME280;65653;53.106;18.046;2023-04-03T07:58:26;102210.77;;;4.51;50.66
76730;BME280;65653;53.106;18.046;2023-04-03T08:00:53;102203.90;;;4.88;50.30
76730;BME280;65653;53.106;18.046;2023-04-03T08:03:20;102198.20;;;5.77;47.91
76730;BME280;65653;53.106;18.046;2023-04-03T08:05:48;102196.83;;;6.64;46.89
76730;BME280;65653;53.106;18.046;2023-04-03T08:08:18;102191.72;;;7.44;44.05
76730;BME280;65653;53.106;18.046;2023-04-03T08:10:48;102191.58;;;7.78;40.64
76730;BME280;65653;53.106;18.046;2023-04-03T08:13:16;102197.30;;;7.85;39.68
76730;BME280;65653;53.106;18.046;2023-04-03T08:15:42;102202.09;;;8.26;40.92
76730;BME280;65653;53.106;18.046;2023-04-03T08:18:10;102200.56;;;8.97;41.37
76730;BME280;65653;53.106;18.046;2023-04-03T08:20:38;102195.21;;;9.57;40.36
76730;BME280;65653;53.106;18.046;2023-04-03T08:23:07;102198.61;;;10.19;39.75
76730;BME280;65653;53.106;18.046;2023-04-03T08:25:38;102192.64;;;10.61;36.72
76730;BME280;65653;53.106;18.046;2023-04-03T08:28:05;102194.35;;;10.60;35.88
76730;BME280;65653;53.106;18.046;2023-04-03T08:30:33;102195.55;;;10.71;35.14
76730;BME280;65653;53.106;18.046;2023-04-03T08:33:01;102192.34;;;11.09;36.51
76730;BME280;65653;53.106;18.046;2023-04-03T08:35:28;102196.43;;;11.43;33.65
76730;BME280;65653;53.106;18.046;2023-04-03T08:37:55;102197.58;;;11.42;33.82
76730;BME280;65653;53.106;18.046;2023-04-03T08:40:22;102199.16;;;11.50;32.81
76730;BME280;65653;53.106;18.046;2023-04-03T08:43:09;102205.73;;;11.65;31.82
76730;BME280;65653;53.106;18.046;2023-04-03T08:45:52;102201.33;;;12.40;34.22
76730;BME280;65653;53.106;18.046;2023-04-03T08:48:36;102197.06;;;13.21;32.19
76730;BME280;65653;53.106;18.046;2023-04-03T08:51:14;102195.96;;;13.81;31.27
76730;BME280;65653;53.106;18.046;2023-04-03T08:54:04;102191.11;;;13.99;30.28
76730;BME280;65653;53.106;18.046;2023-04-03T08:56:34;102196.86;;;14.43;29.95
76730;BME280;65653;53.106;18.046;2023-04-03T08:59:12;102194.42;;;14.84;29.41
76730;BME280;65653;53.106;18.046;2023-04-03T09:01:41;102197.56;;;15.06;26.53
76730;BME280;65653;53.106;18.046;2023-04-03T09:04:13;102192.69;;;15.15;27.80
76730;BME280;65653;53.106;18.046;2023-04-03T09:06:45;102189.84;;;15.49;27.42
76730;BME280;65653;53.106;18.046;2023-04-03T09:09:50;102189.95;;;15.69;25.80
76730;BME280;65653;53.106;18.046;2023-04-03T09:12:39;102192.98;;;15.70;24.61
76730;BME280;65653;53.106;18.046;2023-04-03T09:15:19;102190.18;;;15.60;24.92
76730;BME280;65653;53.106;18.046;2023-04-03T09:18:02;102195.34;;;16.42;24.54
76730;BME280;65653;53.106;18.046;2023-04-03T09:25:47;102210.84;;;11.84;30.12
76730;BME280;65653;53.106;18.046;2023-04-03T09:28:15;102213.02;;;10.52;31.43
76730;BME280;65653;53.106;18.046;2023-04-03T09:30:42;102210.23;;;10.55;32.00
76730;BME280;65653;53.106;18.046;2023-04-03T09:33:10;102207.20;;;10.78;31.38
76730;BME280;65653;53.106;18.046;2023-04-03T09:35:40;102207.52;;;10.89;30.83
76730;BME280;65653;53.106;18.046;2023-04-03T09:40:42;102205.17;;;9.36;32.67
76730;BME280;65653;53.106;18.046;2023-04-03T09:43:26;102210.13;;;8.68;33.08
76730;BME280;65653;53.106;18.046;2023-04-03T09:45:55;102211.24;;;8.15;34.06
76730;BME280;65653;53.106;18.046;2023-04-03T09:48:25;102206.81;;;8.57;33.70
76730;BME280;65653;53.106;18.046;2023-04-03T09:50:58;102214.54;;;9.01;33.74
76730;BME280;65653;53.106;18.046;2023-04-03T09:53:37;102207.54;;;9.51;31.92
76730;BME280;65653;53.106;18.046;2023-04-03T09:56:38;102212.52;;;8.08;33.83
76730;BME280;65653;53.106;18.046;2023-04-03T09:59:16;102217.34;;;7.43;35.36
76730;BME280;65653;53.106;18.046;2023-04-03T10:02:14;102216.58;;;8.73;33.53
76730;BME280;65653;53.106;18.046;2023-04-03T10:04:51;102207.80;;;10.16;32.40
76730;BME280;65653;53.106;18.046;2023-04-03T10:07:38;102197.94;;;11.60;30.19
76730;BME280;65653;53.106;18.046;2023-04-03T10:12:46;102189.60;;;13.18;28.26
76730;BME280;65653;53.106;18.046;2023-04-03T10:15:27;102192.70;;;13.14;28.93
76730;BME280;65653;53.106;18.046;2023-04-03T10:18:27;102189.90;;;13.38;27.62
76730;BME280;65653;53.106;18.046;2023-04-03T10:21:05;102193.17;;;14.24;26.99
76730;BME280;65653;53.106;18.046;2023-04-03T10:23:42;102189.14;;;14.18;26.71
76730;BME280;65653;53.106;18.046;2023-04-03T10:26:25;102182.73;;;13.87;27.52
76730;BME280;65653;53.106;18.046;2023-04-03T10:40:36;102207.63;;;9.22;31.90
76730;BME280;65653;53.106;18.046;2023-04-03T10:43:27;102195.26;;;10.89;29.56
76730;BME280;65653;53.106;18.046;2023-04-03T10:54:13;102177.66;;;17.93;23.53
76730;BME280;65653;53.106;18.046;2023-04-03T10:57:02;102183.27;;;17.15;23.43
76730;BME280;65653;53.106;18.046;2023-04-03T10:59:38;102179.91;;;14.78;24.59
76730;BME280;65653;53.106;18.046;2023-04-03T11:02:26;102189.71;;;12.70;26.52
76730;BME280;65653;53.106;18.046;2023-04-03T11:05:02;102188.89;;;11.46;27.78
76730;BME280;65653;53.106;18.046;2023-04-03T11:07:38;102193.15;;;10.99;28.83
76730;BME280;65653;53.106;18.046;2023-04-03T11:10:15;102171.80;;;14.45;25.68
76730;BME280;65653;53.106;18.046;2023-04-03T11:12:52;102164.86;;;17.24;23.35
76730;BME280;65653;53.106;18.046;2023-04-03T11:15:22;102162.54;;;18.26;22.84
76730;BME280;65653;53.106;18.046;2023-04-03T11:18:35;102157.89;;;17.95;23.24
76730;BME280;65653;53.106;18.046;2023-04-03T11:21:37;102171.39;;;14.08;24.82
76730;BME280;65653;53.106;18.046;2023-04-03T11:24:16;102177.81;;;13.58;26.43
76730;BME280;65653;53.106;18.046;2023-04-03T11:26:56;102164.36;;;14.26;25.54
76730;BME280;65653;53.106;18.046;2023-04-03T11:29:34;102165.14;;;14.26;25.68
76730;BME280;65653;53.106;18.046;2023-04-03T11:35:05;102174.92;;;12.45;26.82
76730;BME280;65653;53.106;18.046;2023-04-03T11:37:36;102164.06;;;13.04;26.46
76730;BME280;65653;53.106;18.046;2023-04-03T11:40:29;102153.71;;;14.50;25.12
76730;BME280;65653;53.106;18.046;2023-04-03T11:43:06;102149.52;;;16.88;22.51
76730;BME280;65653;53.106;18.046;2023-04-03T11:46:06;102149.55;;;16.38;22.26
76730;BME280;65653;53.106;18.046;2023-04-03T11:48:45;102146.82;;;17.23;21.49
76730;BME280;65653;53.106;18.046;2023-04-03T11:53:40;102137.98;;;19.19;19.45
76730;BME280;65653;53.106;18.046;2023-04-03T11:59:36;102143.00;;;16.92;21.84
76730;BME280;65653;53.106;18.046;2023-04-03T12:02:57;102136.27;;;18.48;20.33
76730;BME280;65653;53.106;18.046;2023-04-03T12:05:29;102140.85;;;15.46;22.37
76730;BME280;65653;53.106;18.046;2023-04-03T12:16:25;102137.34;;;16.42;22.02
76730;BME280;65653;53.106;18.046;2023-04-03T12:18:55;102133.52;;;16.15;22.45
76730;BME280;65653;53.106;18.046;2023-04-03T12:26:47;102138.57;;;11.42;28.56
76730;BME280;65653;53.106;18.046;2023-04-03T12:35:30;102151.72;;;8.88;31.61
76730;BME280;65653;53.106;18.046;2023-04-03T12:43:54;102131.90;;;12.70;27.33
76730;BME280;65653;53.106;18.046;2023-04-03T12:46:37;102126.33;;;11.25;29.42
76730;BME280;65653;53.106;18.046;2023-04-03T12:49:31;102126.80;;;10.04;31.38
76730;BME280;65653;53.106;18.046;2023-04-03T12:52:00;102131.36;;;9.07;33.18
76730;BME280;65653;53.106;18.046;2023-04-03T12:54:35;102140.84;;;8.57;34.03
76730;BME280;65653;53.106;18.046;2023-04-03T12:57:20;102138.73;;;8.51;33.90
76730;BME280;65653;53.106;18.046;2023-04-03T12:59:47;102141.99;;;8.57;33.99
76730;BME280;65653;53.106;18.046;2023-04-03T13:02:35;102141.09;;;8.82;32.92
76730;BME280;65653;53.106;18.046;2023-04-03T13:05:09;102130.51;;;10.07;31.40
76730;BME280;65653;53.106;18.046;2023-04-03T13:07:41;102123.70;;;13.64;27.86
76730;BME280;65653;53.106;18.046;2023-04-03T13:12:46;102120.04;;;11.40;28.52
76730;BME280;65653;53.106;18.046;2023-04-03T13:15:28;102127.27;;;10.62;29.39
76730;BME280;65653;53.106;18.046;2023-04-03T13:17:56;102126.40;;;10.15;30.50
76730;BME280;65653;53.106;18.046;2023-04-03T13:20:27;102124.95;;;10.26;30.41
76730;BME280;65653;53.106;18.046;2023-04-03T13:23:03;102127.92;;;9.82;30.57
76730;BME280;65653;53.106;18.046;2023-04-03T13:25:33;102123.34;;;9.48;30.75
76730;BME280;65653;53.106;18.046;2023-04-03T13:28:02;102119.97;;;9.50;31.14
76730;BME280;65653;53.106;18.046;2023-04-03T13:30:32;102112.66;;;10.49;30.16
76730;BME280;65653;53.106;18.046;2023-04-03T13:33:02;102113.54;;;10.55;30.67
76730;BME280;65653;53.106;18.046;2023-04-03T13:35:39;102110.30;;;10.26;31.52
76730;BME280;65653;53.106;18.046;2023-04-03T13:38:25;102114.30;;;9.48;32.22
76730;BME280;65653;53.106;18.046;2023-04-03T13:40:55;102122.21;;;8.68;33.51
76730;BME280;65653;53.106;18.046;2023-04-03T13:43:27;102120.79;;;8.40;34.20
76730;BME280;65653;53.106;18.046;2023-04-03T13:48:48;102115.46;;;10.09;32.60
76730;BME280;65653;53.106;18.046;2023-04-03T13:51:26;102102.41;;;13.70;28.34
76730;BME280;65653;53.106;18.046;2023-04-03T13:53:56;102103.54;;;12.74;29.21
76730;BME280;65653;53.106;18.046;2023-04-03T13:56:30;102109.96;;;11.10;31.17
76730;BME280;65653;53.106;18.046;2023-04-03T14:01:42;102122.80;;;8.68;35.26
76730;BME280;65653;53.106;18.046;2023-04-03T14:04:22;102122.72;;;8.28;36.54
76730;BME280;65653;53.106;18.046;2023-04-03T14:06:50;102119.52;;;8.40;35.89
76730;BME280;65653;53.106;18.046;2023-04-03T14:09:19;102109.85;;;8.83;34.14
76730;BME280;65653;53.106;18.046;2023-04-03T14:11:48;102113.36;;;8.63;34.49
76730;BME280;65653;53.106;18.046;2023-04-03T14:14:21;102112.48;;;8.92;34.10
76730;BME280;65653;53.106;18.046;2023-04-03T14:16:55;102098.00;;;12.12;30.43
76730;BME280;65653;53.106;18.046;2023-04-03T14:19:25;102086.69;;;15.27;27.61
76730;BME280;65653;53.106;18.046;2023-04-03T14:21:53;102073.82;;;17.12;23.91
76730;BME280;65653;53.106;18.046;2023-04-03T14:24:21;102073.09;;;17.90;23.40
76730;BME280;65653;53.106;18.046;2023-04-03T14:26:50;102079.77;;;15.30;25.30